Time;durP1;ratioP1;P1;durP2;ratioP2;P2;SDS_P1;SDS_P2;PMS_P1;PMS_P2;Temp;Humidity;BMP_temperature;BMP_pressure;BME280_temperature;BME280_humidity;BME280_pressure;Samples;Min_cycle;Max_cycle;Signal;HPM_P1;HPM_P2
2022/10/08 00:02:21;;;;;;;25.70;4.68;;;;;;;;;;5029053;28;20299;-64
2022/10/08 00:04:46;;;;;;;20.23;4.85;;;;;;;;;;5029055;28;20017;-65
2022/10/08 00:07:11;;;;;;;17.57;3.90;;;;;;;;;;5029005;28;20033;-64
2022/10/08 00:09:36;;;;;;;12.27;2.70;;;;;;;;;;5031353;28;20272;-65
2022/10/08 00:12:02;;;;;;;10.10;3.92;;;;;;;;;;5027458;28;20067;-64
2022/10/08 00:14:27;;;;;;;20.52;3.38;;;;;;;;;;5028982;28;20113;-64
2022/10/08 00:16:52;;;;;;;22.58;4.32;;;;;;;;;;5029099;28;20021;-64
2022/10/08 00:19:17;;;;;;;12.73;3.95;;;;;;;;;;5030045;28;20051;-64
2022/10/08 00:21:43;;;;;;;8.45;3.03;;;;;;;;;;5028768;28;20025;-64
2022/10/08 00:24:12;;;;;;;15.05;3.28;;;;;;;;;;5025118;28;20022;-64
2022/10/08 00:26:37;;;;;;;11.30;4.15;;;;;;;;;;5027943;28;20623;-64
2022/10/08 00:29:03;;;;;;;21.15;5.85;;;;;;;;;;5028186;28;20029;-64
2022/10/08 00:31:31;;;;;;;18.33;4.28;;;;;;;;;;5026894;28;20021;-64
2022/10/08 00:33:56;;;;;;;17.05;3.63;;;;;;;;;;5028384;28;20076;-64
2022/10/08 00:36:23;;;;;;;12.65;3.95;;;;;;;;;;5028750;28;20064;-64
2022/10/08 00:38:53;;;;;;;15.30;3.55;;;;;;;;;;5030415;28;20021;-64
2022/10/08 00:41:20;;;;;;;23.42;3.70;;;;;;;;;;5029588;28;20078;-64
2022/10/08 00:43:46;;;;;;;10.20;2.97;;;;;;;;;;5029106;28;20018;-64
2022/10/08 00:46:17;;;;;;;14.35;3.35;;;;;;;;;;5027430;28;20040;-64
2022/10/08 00:48:43;;;;;;;18.38;3.10;;;;;;;;;;5028683;28;20022;-64
2022/10/08 00:51:09;;;;;;;15.82;3.45;;;;;;;;;;5028965;28;20021;-64
2022/10/08 00:53:34;;;;;;;11.63;3.58;;;;;;;;;;5029695;28;20022;-64
2022/10/08 00:55:59;;;;;;;12.38;3.63;;;;;;;;;;5028647;28;20732;-64
2022/10/08 00:58:25;;;;;;;14.93;3.80;;;;;;;;;;5029140;28;20080;-64
2022/10/08 01:00:51;;;;;;;23.65;3.30;;;;;;;;;;5026328;28;20022;-64
2022/10/08 01:03:16;;;;;;;19.05;4.32;;;;;;;;;;5029519;28;20021;-64
2022/10/08 01:06:05;;;;;;;23.50;3.97;;;;;;;;;;5028554;28;20493;-64
2022/10/08 01:08:36;;;;;;;14.57;3.72;;;;;;;;;;5029582;28;20105;-64
2022/10/08 01:11:13;;;;;;;28.00;3.80;;;;;;;;;;5030048;28;20037;-64
2022/10/08 01:13:56;;;;;;;15.70;3.50;;;;;;;;;;5034086;28;20536;-64
2022/10/08 01:16:27;;;;;;;16.35;2.97;;;;;;;;;;5028435;28;20083;-64
2022/10/08 01:19:01;;;;;;;14.30;3.30;;;;;;;;;;5034114;28;20017;-64
2022/10/08 01:21:37;;;;;;;17.33;3.45;;;;;;;;;;5025491;28;20390;-64
2022/10/08 01:24:18;;;;;;;16.75;2.53;;;;;;;;;;5033581;28;20502;-64
2022/10/08 01:26:44;;;;;;;11.57;3.38;;;;;;;;;;5030633;28;20049;-64
2022/10/08 01:29:28;;;;;;;16.08;3.90;;;;;;;;;;5033759;28;20056;-64
2022/10/08 01:31:55;;;;;;;13.30;2.58;;;;;;;;;;5031814;28;20013;-64
2022/10/08 01:34:30;;;;;;;16.40;3.78;;;;;;;;;;5032099;28;20410;-64
2022/10/08 01:36:56;;;;;;;8.15;2.40;;;;;;;;;;5032471;28;20100;-64
2022/10/08 01:39:24;;;;;;;15.85;3.50;;;;;;;;;;5031959;28;20753;-64
2022/10/08 01:41:52;;;;;;;13.52;2.65;;;;;;;;;;5029582;28;20024;-65
2022/10/08 01:44:31;;;;;;;8.15;2.90;;;;;;;;;;5031135;28;20018;-65
2022/10/08 01:46:58;;;;;;;11.32;3.10;;;;;;;;;;5031570;28;20029;-63
2022/10/08 01:49:26;;;;;;;18.35;2.72;;;;;;;;;;5030385;28;20029;-64
2022/10/08 01:51:52;;;;;;;16.98;3.55;;;;;;;;;;5032286;28;20104;-64
2022/10/08 01:54:19;;;;;;;12.35;2.67;;;;;;;;;;5031726;28;20509;-64
2022/10/08 01:56:45;;;;;;;14.18;3.28;;;;;;;;;;5032486;28;20405;-64
2022/10/08 01:59:12;;;;;;;19.13;3.10;;;;;;;;;;5032160;28;20021;-64
2022/10/08 02:01:58;;;;;;;8.57;2.72;;;;;;;;;;5030336;28;20101;-65
2022/10/08 02:04:32;;;;;;;10.43;2.80;;;;;;;;;;5032153;28;20036;-64
2022/10/08 02:06:58;;;;;;;20.02;2.95;;;;;;;;;;5032705;28;20446;-65
2022/10/08 02:09:24;;;;;;;12.30;2.53;;;;;;;;;;5025980;28;20049;-64
2022/10/08 02:11:50;;;;;;;23.67;3.08;;;;;;;;;;5032720;28;20025;-65
2022/10/08 02:14:15;;;;;;;12.60;2.55;;;;;;;;;;5030480;28;20029;-65
2022/10/08 02:16:46;;;;;;;17.67;3.17;;;;;;;;;;5032291;28;20433;-64
2022/10/08 02:19:14;;;;;;;10.00;2.40;;;;;;;;;;5033184;28;20014;-64
2022/10/08 02:21:41;;;;;;;16.00;3.17;;;;;;;;;;5032004;28;20059;-65
2022/10/08 02:24:21;;;;;;;17.33;3.05;;;;;;;;;;5031817;28;20102;-64
2022/10/08 02:26:48;;;;;;;16.85;3.40;;;;;;;;;;5027776;28;20036;-64
2022/10/08 02:29:19;;;;;;;4.93;2.17;;;;;;;;;;5033099;28;20022;-64
2022/10/08 02:31:49;;;;;;;9.10;3.00;;;;;;;;;;5029732;28;20022;-64
2022/10/08 02:34:18;;;;;;;18.05;3.47;;;;;;;;;;5037570;28;20032;-65
2022/10/08 02:36:46;;;;;;;12.02;2.65;;;;;;;;;;5029893;28;20025;-64
2022/10/08 02:39:12;;;;;;;12.35;2.80;;;;;;;;;;5032075;28;20494;-64
2022/10/08 02:41:46;;;;;;;13.05;3.10;;;;;;;;;;5029524;28;20089;-64
2022/10/08 02:44:14;;;;;;;10.82;2.88;;;;;;;;;;5032044;28;20044;-64
2022/10/08 02:46:41;;;;;;;19.50;3.13;;;;;;;;;;5026816;28;20033;-64
2022/10/08 02:49:13;;;;;;;12.10;2.22;;;;;;;;;;5032274;28;20021;-64
2022/10/08 02:51:39;;;;;;;13.15;2.28;;;;;;;;;;5030447;28;20017;-64
2022/10/08 02:54:07;;;;;;;13.68;2.63;;;;;;;;;;5030352;28;20020;-64
2022/10/08 02:56:35;;;;;;;15.32;2.75;;;;;;;;;;5030160;28;20024;-65
2022/10/08 02:59:01;;;;;;;13.25;2.47;;;;;;;;;;5030874;28;20140;-64
2022/10/08 03:01:32;;;;;;;15.60;2.33;;;;;;;;;;5028342;28;20022;-64
2022/10/08 03:04:18;;;;;;;15.57;2.85;;;;;;;;;;5030655;28;20013;-64
2022/10/08 03:06:43;;;;;;;17.80;2.80;;;;;;;;;;5022055;28;20049;-64
2022/10/08 03:09:10;;;;;;;6.70;1.85;;;;;;;;;;5030211;28;20498;-64
2022/10/08 03:11:36;;;;;;;8.82;1.98;;;;;;;;;;5029321;28;20026;-64
2022/10/08 03:14:03;;;;;;;12.43;2.92;;;;;;;;;;5029830;28;20029;-64
2022/10/08 03:16:35;;;;;;;11.82;2.72;;;;;;;;;;5029087;28;20033;-64
2022/10/08 03:19:01;;;;;;;18.80;2.95;;;;;;;;;;5030580;28;20765;-64
2022/10/08 03:21:27;;;;;;;7.40;2.50;;;;;;;;;;5028307;28;20106;-64
2022/10/08 03:23:52;;;;;;;16.48;3.70;;;;;;;;;;5024032;28;20024;-65
2022/10/08 03:26:17;;;;;;;19.75;2.70;;;;;;;;;;5031007;28;20029;-65
2022/10/08 03:28:42;;;;;;;10.65;2.53;;;;;;;;;;5058625;22;20086;-66
2022/10/08 03:31:08;;;;;;;18.97;3.30;;;;;;;;;;5039499;28;20047;-66
2022/10/08 03:33:33;;;;;;;10.10;2.63;;;;;;;;;;5033570;28;20275;-66
2022/10/08 03:35:58;;;;;;;9.43;2.10;;;;;;;;;;5038924;28;20401;-66
2022/10/08 03:38:23;;;;;;;10.13;2.50;;;;;;;;;;5044393;28;20102;-66
2022/10/08 03:40:53;;;;;;;14.60;2.40;;;;;;;;;;5050258;28;20279;-66
2022/10/08 03:43:18;;;;;;;17.20;3.97;;;;;;;;;;5050806;28;20282;-66
2022/10/08 03:45:50;;;;;;;18.27;2.60;;;;;;;;;;5047816;28;20106;-66
2022/10/08 03:48:15;;;;;;;14.07;2.50;;;;;;;;;;5049015;28;20271;-66
2022/10/08 03:50:49;;;;;;;9.10;1.93;;;;;;;;;;5048350;28;20032;-66
2022/10/08 03:53:14;;;;;;;12.75;2.95;;;;;;;;;;5048174;28;20865;-66
2022/10/08 03:55:39;;;;;;;14.60;2.10;;;;;;;;;;5046390;28;20061;-66
2022/10/08 03:58:04;;;;;;;18.20;2.63;;;;;;;;;;5049263;28;20271;-66
2022/10/08 04:00:29;;;;;;;13.70;2.95;;;;;;;;;;5049804;28;20350;-66
2022/10/08 04:02:55;;;;;;;9.90;2.53;;;;;;;;;;5042273;28;20025;-66
2022/10/08 04:05:20;;;;;;;12.32;2.95;;;;;;;;;;5045802;28;20282;-66
2022/10/08 04:07:45;;;;;;;18.50;2.75;;;;;;;;;;5045786;28;20043;-66
2022/10/08 04:10:10;;;;;;;12.40;3.07;;;;;;;;;;5046586;28;20389;-66
2022/10/08 04:12:35;;;;;;;16.20;2.83;;;;;;;;;;5046828;28;20275;-66
2022/10/08 04:15:00;;;;;;;16.53;3.20;;;;;;;;;;5048151;28;20295;-66
2022/10/08 04:17:26;;;;;;;20.37;3.07;;;;;;;;;;5048733;28;20279;-65
2022/10/08 04:19:51;;;;;;;11.40;2.40;;;;;;;;;;5046418;28;20702;-66
2022/10/08 04:22:16;;;;;;;9.65;2.17;;;;;;;;;;5044873;28;20278;-66
2022/10/08 04:24:42;;;;;;;8.53;2.87;;;;;;;;;;5046526;28;20021;-66
2022/10/08 04:27:07;;;;;;;11.27;3.13;;;;;;;;;;5047099;28;20289;-66
2022/10/08 04:29:32;;;;;;;15.57;3.97;;;;;;;;;;5047863;28;20275;-66
2022/10/08 04:31:57;;;;;;;14.20;4.43;;;;;;;;;;5048038;28;20783;-67
2022/10/08 04:34:22;;;;;;;11.60;2.63;;;;;;;;;;5047389;28;20283;-66
2022/10/08 04:36:47;;;;;;;11.52;2.85;;;;;;;;;;5045840;28;20755;-66
2022/10/08 04:39:13;;;;;;;16.37;3.70;;;;;;;;;;5048748;28;20488;-66
2022/10/08 04:41:38;;;;;;;14.90;3.00;;;;;;;;;;5048029;28;20316;-67
2022/10/08 04:44:03;;;;;;;21.93;3.43;;;;;;;;;;5047811;28;20763;-67
2022/10/08 04:46:28;;;;;;;22.15;4.30;;;;;;;;;;5048149;28;20295;-66
2022/10/08 04:48:54;;;;;;;15.30;3.75;;;;;;;;;;5048947;28;20020;-66
2022/10/08 04:51:22;;;;;;;20.50;3.38;;;;;;;;;;5041834;28;20458;-67
2022/10/08 04:53:47;;;;;;;17.75;3.47;;;;;;;;;;5047942;28;20492;-67
2022/10/08 04:56:13;;;;;;;21.80;4.00;;;;;;;;;;5043412;28;20021;-66
2022/10/08 04:58:39;;;;;;;12.95;2.95;;;;;;;;;;5047518;28;20596;-66
2022/10/08 05:01:04;;;;;;;22.20;3.92;;;;;;;;;;5046782;28;20502;-66
2022/10/08 05:03:30;;;;;;;13.40;2.70;;;;;;;;;;5047242;28;20480;-67
2022/10/08 05:05:55;;;;;;;11.90;2.95;;;;;;;;;;5047200;28;20043;-66
2022/10/08 05:08:20;;;;;;;14.60;3.57;;;;;;;;;;5048767;28;20155;-66
2022/10/08 05:10:48;;;;;;;12.23;2.93;;;;;;;;;;5046567;28;20279;-67
2022/10/08 05:13:13;;;;;;;16.73;3.42;;;;;;;;;;5049400;28;20280;-67
2022/10/08 05:15:39;;;;;;;13.52;2.92;;;;;;;;;;5045884;28;20029;-66
2022/10/08 05:18:04;;;;;;;10.37;3.70;;;;;;;;;;5047072;28;20025;-67
2022/10/08 05:20:29;;;;;;;9.60;2.83;;;;;;;;;;5043886;28;20342;-66
2022/10/08 05:22:54;;;;;;;22.17;3.33;;;;;;;;;;5046188;28;20278;-66
2022/10/08 05:25:19;;;;;;;9.60;3.27;;;;;;;;;;5040596;28;20800;-66
2022/10/08 05:27:44;;;;;;;15.60;3.28;;;;;;;;;;5045385;28;20278;-66
2022/10/08 05:30:10;;;;;;;14.93;2.88;;;;;;;;;;5044733;28;20057;-66
2022/10/08 05:32:35;;;;;;;10.55;2.65;;;;;;;;;;5046551;28;20775;-66
2022/10/08 05:35:00;;;;;;;13.23;3.40;;;;;;;;;;5046524;28;20033;-66
2022/10/08 05:37:25;;;;;;;11.15;3.85;;;;;;;;;;5046126;28;20391;-66
2022/10/08 05:39:50;;;;;;;12.90;3.70;;;;;;;;;;5047113;28;20251;-66
2022/10/08 05:42:16;;;;;;;15.90;3.27;;;;;;;;;;5047203;28;20279;-66
2022/10/08 05:44:41;;;;;;;17.43;3.33;;;;;;;;;;5045014;28;20314;-66
2022/10/08 05:47:06;;;;;;;10.57;2.73;;;;;;;;;;5046529;28;20529;-66
2022/10/08 05:49:31;;;;;;;21.87;3.50;;;;;;;;;;5044963;28;20313;-65
2022/10/08 05:51:57;;;;;;;14.90;2.90;;;;;;;;;;5045359;28;20288;-66
2022/10/08 05:54:22;;;;;;;17.42;3.85;;;;;;;;;;5046136;28;20496;-66
2022/10/08 05:56:47;;;;;;;9.82;2.97;;;;;;;;;;5047002;28;20025;-66
2022/10/08 05:59:31;;;;;;;14.25;3.28;;;;;;;;;;5049618;28;20520;-66
2022/10/08 06:01:56;;;;;;;14.98;3.58;;;;;;;;;;5047001;28;20025;-66
2022/10/08 06:04:21;;;;;;;11.47;2.93;;;;;;;;;;5049146;28;20027;-66
2022/10/08 06:06:46;;;;;;;17.27;3.30;;;;;;;;;;5049593;28;20271;-66
2022/10/08 06:09:14;;;;;;;12.43;3.08;;;;;;;;;;5049885;28;20408;-66
2022/10/08 06:11:39;;;;;;;16.08;3.05;;;;;;;;;;5048222;28;20021;-66
2022/10/08 06:14:05;;;;;;;11.70;3.10;;;;;;;;;;5049101;28;20020;-66
2022/10/08 06:16:31;;;;;;;18.48;3.78;;;;;;;;;;5047730;28;20067;-66
2022/10/08 06:18:56;;;;;;;15.45;4.53;;;;;;;;;;5049294;28;20053;-66
2022/10/08 06:21:23;;;;;;;20.80;4.75;;;;;;;;;;5049406;28;20025;-66
2022/10/08 06:23:53;;;;;;;13.80;4.00;;;;;;;;;;5047938;28;20032;-66
2022/10/08 06:26:20;;;;;;;12.82;3.45;;;;;;;;;;5049503;28;20064;-66
2022/10/08 06:28:46;;;;;;;19.35;3.90;;;;;;;;;;5051108;28;20021;-66
2022/10/08 06:31:11;;;;;;;14.10;3.67;;;;;;;;;;5051229;28;20389;-66
2022/10/08 06:33:36;;;;;;;9.30;3.50;;;;;;;;;;5049606;28;20396;-66
2022/10/08 06:36:03;;;;;;;21.88;3.53;;;;;;;;;;5049564;28;20477;-66
2022/10/08 06:38:28;;;;;;;9.35;3.25;;;;;;;;;;5048359;28;20052;-66
2022/10/08 06:40:55;;;;;;;12.40;3.45;;;;;;;;;;5050192;28;20017;-66
2022/10/08 06:43:21;;;;;;;21.35;3.90;;;;;;;;;;5049672;28;20028;-66
2022/10/08 06:45:46;;;;;;;11.68;3.42;;;;;;;;;;5050237;28;20020;-66
2022/10/08 06:48:12;;;;;;;19.43;4.07;;;;;;;;;;5051019;28;20492;-66
2022/10/08 06:50:37;;;;;;;11.75;3.42;;;;;;;;;;5049497;28;20271;-66
2022/10/08 06:53:03;;;;;;;13.88;3.88;;;;;;;;;;5051063;28;20021;-66
2022/10/08 06:55:30;;;;;;;14.90;3.88;;;;;;;;;;5051126;28;20167;-66
2022/10/08 06:57:55;;;;;;;14.20;3.55;;;;;;;;;;5049749;28;20429;-66
2022/10/08 07:00:20;;;;;;;12.75;3.85;;;;;;;;;;5048596;28;20032;-66
2022/10/08 07:02:45;;;;;;;17.48;4.63;;;;;;;;;;5048635;28;20032;-66
2022/10/08 07:05:10;;;;;;;11.57;3.47;;;;;;;;;;5049623;28;20037;-66
2022/10/08 07:07:35;;;;;;;17.07;4.30;;;;;;;;;;5049621;28;20363;-66
2022/10/08 07:10:02;;;;;;;18.70;5.60;;;;;;;;;;5049286;28;20275;-66
2022/10/08 07:12:27;;;;;;;19.77;4.82;;;;;;;;;;5041949;28;20306;-66
2022/10/08 07:14:52;;;;;;;17.17;4.78;;;;;;;;;;5046331;28;20461;-66
2022/10/08 07:17:18;;;;;;;21.17;5.17;;;;;;;;;;5048779;28;20494;-66
2022/10/08 07:19:43;;;;;;;13.25;5.15;;;;;;;;;;5051029;28;20271;-66
2022/10/08 07:22:08;;;;;;;11.47;4.80;;;;;;;;;;5050260;28;20124;-66
2022/10/08 07:24:33;;;;;;;18.90;6.50;;;;;;;;;;5050901;28;20275;-66
2022/10/08 07:26:59;;;;;;;17.60;5.33;;;;;;;;;;5048188;28;20375;-66
2022/10/08 07:29:25;;;;;;;13.57;5.93;;;;;;;;;;5050478;28;20272;-66
2022/10/08 07:31:50;;;;;;;17.73;6.00;;;;;;;;;;5049803;28;20025;-66
2022/10/08 07:34:15;;;;;;;26.98;7.80;;;;;;;;;;5050413;28;20151;-66
2022/10/08 07:36:41;;;;;;;26.67;9.38;;;;;;;;;;5049463;28;20021;-66
2022/10/08 07:39:07;;;;;;;20.73;8.98;;;;;;;;;;5049044;28;20122;-66
2022/10/08 07:41:33;;;;;;;29.90;11.98;;;;;;;;;;5043481;28;20028;-66
2022/10/08 07:43:59;;;;;;;29.15;11.95;;;;;;;;;;5047519;28;20022;-66
2022/10/08 07:46:25;;;;;;;26.17;12.23;;;;;;;;;;5049924;28;20473;-66
2022/10/08 07:48:51;;;;;;;39.58;13.40;;;;;;;;;;5049650;28;20021;-66
2022/10/08 07:51:17;;;;;;;28.98;13.13;;;;;;;;;;5050085;28;20021;-66
2022/10/08 07:53:43;;;;;;;36.95;13.93;;;;;;;;;;5049675;28;20469;-66
2022/10/08 07:56:09;;;;;;;37.85;13.18;;;;;;;;;;5046896;28;20059;-66
2022/10/08 07:58:34;;;;;;;34.50;12.45;;;;;;;;;;5046352;28;20033;-66
2022/10/08 08:01:01;;;;;;;37.55;11.95;;;;;;;;;;5048708;28;20025;-66
2022/10/08 08:03:27;;;;;;;30.23;11.85;;;;;;;;;;5048081;28;20017;-66
2022/10/08 08:05:52;;;;;;;30.87;12.67;;;;;;;;;;5046357;28;20029;-66
2022/10/08 08:08:19;;;;;;;29.90;12.20;;;;;;;;;;5045740;28;20291;-66
2022/10/08 08:10:44;;;;;;;27.98;10.30;;;;;;;;;;5045553;28;20480;-66
2022/10/08 08:13:09;;;;;;;32.07;10.53;;;;;;;;;;5045960;28;20071;-67
2022/10/08 08:15:34;;;;;;;23.93;8.20;;;;;;;;;;5048239;28;20340;-66
2022/10/08 08:18:00;;;;;;;19.00;7.67;;;;;;;;;;5045459;28;20039;-66
2022/10/08 08:20:25;;;;;;;24.13;7.50;;;;;;;;;;5047657;28;20267;-66
2022/10/08 08:22:50;;;;;;;26.23;8.07;;;;;;;;;;5046115;28;21018;-66
2022/10/08 08:25:15;;;;;;;17.45;7.10;;;;;;;;;;5046789;28;20017;-66
2022/10/08 08:27:40;;;;;;;27.48;9.13;;;;;;;;;;5045845;28;20154;-66
2022/10/08 08:30:06;;;;;;;18.30;9.05;;;;;;;;;;5047111;28;20116;-66
2022/10/08 08:32:31;;;;;;;23.15;8.27;;;;;;;;;;5046235;28;20029;-66
2022/10/08 08:34:56;;;;;;;22.02;8.20;;;;;;;;;;5047745;28;20123;-66
2022/10/08 08:37:22;;;;;;;21.05;8.32;;;;;;;;;;5044080;28;20021;-66
2022/10/08 08:39:47;;;;;;;22.43;8.67;;;;;;;;;;5044852;28;20036;-66
2022/10/08 08:42:12;;;;;;;26.63;9.23;;;;;;;;;;5044851;28;20364;-66
2022/10/08 08:44:37;;;;;;;20.70;8.32;;;;;;;;;;5041778;28;20373;-66
2022/10/08 08:47:05;;;;;;;20.67;9.87;;;;;;;;;;5047006;28;20115;-66
2022/10/08 08:49:32;;;;;;;25.98;8.32;;;;;;;;;;5046264;28;20283;-66
2022/10/08 08:51:58;;;;;;;26.30;8.57;;;;;;;;;;5046728;28;20489;-66
2022/10/08 08:54:24;;;;;;;22.35;7.22;;;;;;;;;;5047230;28;20289;-66
2022/10/08 08:56:50;;;;;;;18.48;6.88;;;;;;;;;;5047318;28;20496;-66
2022/10/08 08:59:24;;;;;;;18.90;5.80;;;;;;;;;;5045612;28;20025;-67
2022/10/08 09:01:49;;;;;;;16.98;5.97;;;;;;;;;;5044720;28;20794;-67
2022/10/08 09:04:21;;;;;;;20.85;6.10;;;;;;;;;;5046936;28;20060;-67
2022/10/08 09:06:48;;;;;;;17.55;4.85;;;;;;;;;;5043894;28;20053;-67
2022/10/08 09:09:24;;;;;;;15.15;4.57;;;;;;;;;;5047143;28;20032;-67
2022/10/08 09:11:49;;;;;;;16.10;5.15;;;;;;;;;;5048668;28;20491;-67
2022/10/08 09:14:27;;;;;;;13.68;4.53;;;;;;;;;;5048599;28;20023;-67
2022/10/08 09:16:53;;;;;;;11.32;4.00;;;;;;;;;;5043381;28;20092;-67
2022/10/08 09:19:19;;;;;;;15.00;4.72;;;;;;;;;;5048404;28;20458;-67
2022/10/08 09:21:44;;;;;;;13.32;3.88;;;;;;;;;;5045216;28;20099;-67
2022/10/08 09:24:09;;;;;;;17.43;4.30;;;;;;;;;;5048773;28;20017;-66
2022/10/08 09:26:35;;;;;;;11.80;4.03;;;;;;;;;;5048232;28;20500;-66
2022/10/08 09:29:04;;;;;;;17.38;4.22;;;;;;;;;;5079140;22;20052;-86
2022/10/08 09:31:39;;;;;;;12.77;4.73;;;;;;;;;;5059234;28;20024;-86
2022/10/08 09:34:11;;;;;;;12.82;4.45;;;;;;;;;;5061136;28;20279;-85
2022/10/08 09:36:41;;;;;;;16.77;4.70;;;;;;;;;;5057460;28;20066;-88
2022/10/08 09:39:19;;;;;;;11.70;4.15;;;;;;;;;;5069703;28;20028;-87
2022/10/08 09:41:45;;;;;;;13.45;4.63;;;;;;;;;;5068227;28;20080;-86
2022/10/08 09:44:15;;;;;;;17.45;4.07;;;;;;;;;;5072278;28;20042;-86
2022/10/08 09:46:41;;;;;;;12.25;3.65;;;;;;;;;;5071105;28;20016;-84
2022/10/08 09:49:20;;;;;;;8.80;3.70;;;;;;;;;;5062924;28;20032;-86
2022/10/08 09:51:45;;;;;;;13.85;4.85;;;;;;;;;;5053182;28;20021;-87
2022/10/08 09:54:13;;;;;;;19.67;4.68;;;;;;;;;;5063295;28;20021;-85
2022/10/08 09:56:38;;;;;;;10.98;3.80;;;;;;;;;;5066719;28;20159;-87
2022/10/08 09:59:04;;;;;;;19.10;4.22;;;;;;;;;;5060071;28;20498;-85
2022/10/08 10:01:30;;;;;;;14.88;4.47;;;;;;;;;;5056674;28;20032;-88
2022/10/08 10:04:05;;;;;;;11.60;4.05;;;;;;;;;;5056468;28;20043;-87
2022/10/08 10:06:32;;;;;;;14.70;4.03;;;;;;;;;;5061415;28;20377;-86
2022/10/08 10:09:09;;;;;;;19.17;3.88;;;;;;;;;;5058795;28;20096;-85
2022/10/08 10:12:05;;;;;;;10.48;3.75;;;;;;;;;;5069154;28;20032;-83
2022/10/08 10:14:44;;;;;;;8.05;3.95;;;;;;;;;;5065746;28;20052;-87
2022/10/08 10:17:32;;;;;;;15.02;4.32;;;;;;;;;;5059127;28;20069;-86
2022/10/08 10:19:59;;;;;;;10.38;3.92;;;;;;;;;;5061437;28;20024;-87
2022/10/08 10:22:28;;;;;;;13.10;2.97;;;;;;;;;;5067370;28;20513;-87
2022/10/08 10:24:56;;;;;;;12.73;3.17;;;;;;;;;;5060929;28;20548;-87
2022/10/08 10:27:22;;;;;;;12.43;2.92;;;;;;;;;;5058072;28;20028;-88
2022/10/08 10:29:53;;;;;;;14.45;3.22;;;;;;;;;;5059227;28;20024;-88
2022/10/08 10:32:21;;;;;;;13.95;3.88;;;;;;;;;;5076705;28;20024;-87
2022/10/08 10:34:59;;;;;;;12.55;3.53;;;;;;;;;;5080565;28;20035;-89
2022/10/08 10:37:38;;;;;;;12.05;3.33;;;;;;;;;;5058999;28;20027;-89
2022/10/08 10:40:14;;;;;;;15.10;3.63;;;;;;;;;;5080190;28;20110;-87
2022/10/08 10:42:54;;;;;;;18.35;3.63;;;;;;;;;;5060979;28;20020;-88
2022/10/08 10:45:33;;;;;;;14.60;3.97;;;;;;;;;;5068609;28;20116;-88
2022/10/08 10:48:02;;;;;;;10.15;3.38;;;;;;;;;;5066638;28;20032;-88
2022/10/08 10:50:45;;;;;;;10.80;3.28;;;;;;;;;;5070807;28;20017;-89
2022/10/08 10:53:27;;;;;;;14.35;3.05;;;;;;;;;;5065519;28;20024;-87
2022/10/08 10:56:19;;;;;;;15.13;3.67;;;;;;;;;;5062968;28;20123;-88
2022/10/08 10:58:51;;;;;;;9.20;3.10;;;;;;;;;;5070733;28;20047;-87
2022/10/08 11:01:31;;;;;;;15.70;3.58;;;;;;;;;;5058675;28;20141;-89
2022/10/08 11:04:15;;;;;;;11.77;3.00;;;;;;;;;;5069580;28;20040;-87
2022/10/08 11:06:52;;;;;;;10.98;2.30;;;;;;;;;;5054095;28;20118;-88
2022/10/08 11:09:49;;;;;;;21.63;2.83;;;;;;;;;;5063742;28;20027;-87
2022/10/08 11:12:33;;;;;;;8.35;2.30;;;;;;;;;;5023023;28;20684;-86
2022/10/08 11:15:17;;;;;;;7.00;1.83;;;;;;;;;;5060696;28;20575;-87
2022/10/08 11:17:45;;;;;;;7.85;2.03;;;;;;;;;;5069638;28;20048;-88
2022/10/08 11:20:38;;;;;;;6.80;3.00;;;;;;;;;;5062047;28;20020;-89
2022/10/08 11:23:31;;;;;;;8.07;2.20;;;;;;;;;;5063902;28;20723;-89
2022/10/08 11:25:59;;;;;;;11.25;2.50;;;;;;;;;;5067413;28;20047;-88
2022/10/08 11:28:56;;;;;;;15.02;2.60;;;;;;;;;;5062335;28;20103;-87
2022/10/08 11:31:41;;;;;;;17.00;2.72;;;;;;;;;;5019468;28;20496;-88
2022/10/08 11:34:25;;;;;;;10.23;1.92;;;;;;;;;;5069421;28;20024;-88
2022/10/08 11:37:07;;;;;;;8.65;2.05;;;;;;;;;;5066590;28;20473;-88
2022/10/08 11:39:40;;;;;;;5.78;1.52;;;;;;;;;;5068064;28;20024;-87
2022/10/08 11:42:29;;;;;;;6.25;2.22;;;;;;;;;;5067533;28;20512;-86
2022/10/08 11:45:11;;;;;;;7.82;1.85;;;;;;;;;;5042650;28;20060;-87
2022/10/08 11:47:42;;;;;;;5.68;1.58;;;;;;;;;;5069925;28;20024;-86
2022/10/08 11:50:20;;;;;;;7.72;1.70;;;;;;;;;;5062566;28;20021;-86
2022/10/08 11:52:45;;;;;;;5.50;1.27;;;;;;;;;;5068460;28;20021;-87
2022/10/08 11:55:18;;;;;;;10.20;1.77;;;;;;;;;;5067882;28;20103;-87
2022/10/08 11:58:09;;;;;;;12.85;1.65;;;;;;;;;;5052354;28;20025;-87
2022/10/08 12:00:42;;;;;;;7.70;1.80;;;;;;;;;;5054929;28;20048;-85
2022/10/08 12:03:29;;;;;;;8.55;1.70;;;;;;;;;;5066018;28;20029;-87
2022/10/08 12:06:16;;;;;;;11.00;1.60;;;;;;;;;;5059851;28;20496;-87
2022/10/08 12:08:49;;;;;;;9.45;2.10;;;;;;;;;;5065159;28;20062;-85
2022/10/08 12:11:36;;;;;;;7.47;1.13;;;;;;;;;;5053349;28;20102;-89
2022/10/08 12:14:11;;;;;;;10.82;2.35;;;;;;;;;;5053753;28;20484;-89
2022/10/08 12:16:45;;;;;;;9.80;1.85;;;;;;;;;;5067602;28;20103;-89
2022/10/08 12:19:31;;;;;;;5.97;1.10;;;;;;;;;;5070699;28;20024;-89
2022/10/08 12:22:01;;;;;;;10.60;1.92;;;;;;;;;;5069532;28;20108;-89
2022/10/08 12:24:39;;;;;;;6.95;0.85;;;;;;;;;;5062554;28;20166;-87
2022/10/08 12:27:29;;;;;;;7.18;0.90;;;;;;;;;;5069900;28;20119;-89
2022/10/08 12:30:05;;;;;;;7.00;1.17;;;;;;;;;;5068877;28;20119;-88
2022/10/08 12:32:51;;;;;;;5.85;1.58;;;;;;;;;;5057753;28;20028;-88
2022/10/08 12:35:36;;;;;;;7.03;2.80;;;;;;;;;;5054916;28;20480;-87
2022/10/08 12:38:26;;;;;;;3.95;1.17;;;;;;;;;;5065671;28;20040;-86
2022/10/08 12:40:56;;;;;;;7.72;1.10;;;;;;;;;;5062730;28;20008;-88
2022/10/08 12:43:40;;;;;;;12.60;1.48;;;;;;;;;;5067350;28;20096;-89
2022/10/08 12:46:28;;;;;;;6.50;1.88;;;;;;;;;;5071578;28;20035;-89
2022/10/08 12:48:56;;;;;;;4.10;0.70;;;;;;;;;;5042386;28;20024;-89
2022/10/08 12:51:22;;;;;;;4.05;0.82;;;;;;;;;;5060493;28;20017;-91
2022/10/08 12:53:50;;;;;;;8.80;1.58;;;;;;;;;;5059003;28;20020;-90
2022/10/08 12:56:20;;;;;;;4.28;0.55;;;;;;;;;;5065844;28;20060;-90
2022/10/08 12:58:47;;;;;;;9.57;1.17;;;;;;;;;;5063328;28;20036;-89
2022/10/08 13:01:27;;;;;;;2.88;0.85;;;;;;;;;;5064481;28;20028;-90
2022/10/08 13:04:06;;;;;;;10.70;1.40;;;;;;;;;;5056005;28;20025;-90
2022/10/08 13:06:31;;;;;;;5.65;1.08;;;;;;;;;;5066574;28;20629;-90
2022/10/08 13:09:09;;;;;;;2.67;0.90;;;;;;;;;;5073153;28;20013;-92
2022/10/08 13:11:34;;;;;;;4.85;0.85;;;;;;;;;;5068383;28;20307;-89
2022/10/08 13:14:03;;;;;;;7.13;1.40;;;;;;;;;;5056000;28;20619;-90
2022/10/08 13:16:50;;;;;;;7.00;1.38;;;;;;;;;;5071963;28;20104;-91
2022/10/08 13:19:25;;;;;;;4.10;1.13;;;;;;;;;;5058210;28;20099;-90
2022/10/08 13:22:11;;;;;;;;;;;;;;;;;;;;;
2022/10/08 13:24:39;;;;;;;6.88;0.88;;;;;;;;;;5072835;28;20635;-89
2022/10/08 13:27:22;;;;;;;5.05;1.25;;;;;;;;;;5074384;28;20020;-90
2022/10/08 13:29:50;;;;;;;7.40;0.95;;;;;;;;;;5068217;28;20020;-89
2022/10/08 13:32:44;;;;;;;3.30;0.70;;;;;;;;;;5064772;28;23051;-91
2022/10/08 13:35:28;;;;;;;2.83;0.60;;;;;;;;;;5070324;28;20025;-95
2022/10/08 13:37:56;;;;;;;7.25;1.00;;;;;;;;;;5071973;28;20020;-89
2022/10/08 13:40:22;;;;;;;5.68;1.00;;;;;;;;;;5072430;28;20020;-89
2022/10/08 13:42:52;;;;;;;8.25;1.65;;;;;;;;;;5065020;28;20104;-89
2022/10/08 13:45:19;;;;;;;3.75;0.85;;;;;;;;;;5069014;28;20027;-89
2022/10/08 13:47:55;;;;;;;6.70;0.82;;;;;;;;;;5069952;28;20025;-91
2022/10/08 13:50:21;;;;;;;3.42;1.08;;;;;;;;;;5065986;28;20048;-90
2022/10/08 13:52:53;;;;;;;11.45;1.38;;;;;;;;;;5075832;28;20017;-91
2022/10/08 13:55:25;;;;;;;6.78;1.05;;;;;;;;;;5075974;28;20025;-91
2022/10/08 13:57:51;;;;;;;4.95;0.90;;;;;;;;;;5062408;28;20485;-91
2022/10/08 14:00:16;;;;;;;9.43;1.33;;;;;;;;;;5072836;28;20013;-91
2022/10/08 14:02:55;;;;;;;3.65;0.80;;;;;;;;;;5074629;28;20469;-89
2022/10/08 14:05:23;;;;;;;6.43;1.20;;;;;;;;;;5070748;28;20036;-90
2022/10/08 14:07:51;;;;;;;5.32;1.38;;;;;;;;;;5067771;28;20020;-89
2022/10/08 14:10:17;;;;;;;2.67;0.80;;;;;;;;;;5068834;28;20145;-88
2022/10/08 14:12:43;;;;;;;2.17;0.68;;;;;;;;;;5071195;28;20024;-89
2022/10/08 14:15:10;;;;;;;4.70;0.90;;;;;;;;;;5064756;28;20036;-89
2022/10/08 14:17:35;;;;;;;2.95;0.70;;;;;;;;;;5063453;28;20074;-88
2022/10/08 14:20:10;;;;;;;3.42;0.70;;;;;;;;;;5075282;28;20029;-90
2022/10/08 14:22:38;;;;;;;9.02;0.63;;;;;;;;;;5076850;28;20016;-89
2022/10/08 14:25:12;;;;;;;7.85;1.27;;;;;;;;;;5069317;28;20038;-88
2022/10/08 14:27:37;;;;;;;4.85;1.40;;;;;;;;;;5065819;22;20041;-65
2022/10/08 14:30:03;;;;;;;6.27;0.80;;;;;;;;;;5036753;28;20027;-64
2022/10/08 14:32:28;;;;;;;4.63;0.80;;;;;;;;;;5035290;28;20260;-66
2022/10/08 14:34:53;;;;;;;6.00;0.85;;;;;;;;;;5034222;28;20026;-65
2022/10/08 14:37:18;;;;;;;2.23;0.47;;;;;;;;;;5034607;28;20029;-65
2022/10/08 14:39:44;;;;;;;5.93;0.77;;;;;;;;;;5031439;28;20291;-65
2022/10/08 14:42:09;;;;;;;2.80;0.88;;;;;;;;;;5128305;22;20311;-65
2022/10/08 14:44:34;;;;;;;7.87;1.00;;;;;;;;;;5087820;28;20027;-68
2022/10/08 14:46:59;;;;;;;4.80;0.70;;;;;;;;;;5086582;28;20345;-65
2022/10/08 14:49:24;;;;;;;6.77;1.10;;;;;;;;;;5089427;28;20265;-67